This is the latest recevied weather packets stored in our database for station/object N0NB. If no packets are shown the sender has not sent any weather packets the latest 10 day(s).
| Time | Temp. | Humidity | Pressure | Rain* | Wind** | Luminosity | Snow |
|---|---|---|---|---|---|---|---|
| 1777834217 | 25.56° C | 29% | 1010.4 hPa | 0 mm | - | 885 W/m² | - |
| 1777833617 | 25° C | 33% | 1010.6 hPa | 0 mm | - | 883 W/m² | - |
| 1777833017 | 25.56° C | 30% | 1010.8 hPa | 0 mm | - | 897 W/m² | - |
| 1777832417 | 25° C | 32% | 1010.9 hPa | 0 mm | - | 888 W/m² | - |
| 1777831817 | 24.44° C | 33% | 1011 hPa | 0 mm | - | 854 W/m² | - |
| 1777831217 | 24.44° C | 31% | 1011.1 hPa | 0 mm | - | 910 W/m² | - |
| 1777830617 | 23.89° C | 37% | 1011.2 hPa | 0 mm | - | 856 W/m² | - |
| 1777830017 | 23.33° C | 34% | 1011.1 hPa | 0 mm | - | 869 W/m² | - |
| 1777829417 | 23.33° C | 33% | 1011.3 hPa | 0 mm | - | 771 W/m² | - |
| 1777828817 | 22.78° C | 36% | 1011.4 hPa | 0 mm | - | 782 W/m² | - |
| 1777828217 | 22.78° C | 36% | 1011.7 hPa | 0 mm | - | 789 W/m² | - |
| 1777827617 | 22.22° C | 37% | 1011.8 hPa | 0 mm | - | 674 W/m² | - |
| 1777827017 | 21.67° C | 40% | 1011.8 hPa | 0 mm | - | 800 W/m² | - |
| 1777826417 | 21.11° C | 40% | 1011.9 hPa | 0 mm | - | 702 W/m² | - |
| 1777825817 | 20.56° C | 42% | 1011.8 hPa | 0 mm | - | 651 W/m² | - |
| 1777825216 | 20.56° C | 43% | 1012 hPa | 0 mm | - | 630 W/m² | - |
| 1777824617 | 20° C | 42% | 1011.9 hPa | 0 mm | - | 661 W/m² | - |
| 1777824017 | 19.44° C | 47% | 1011.9 hPa | 0 mm | - | 682 W/m² | - |
| 1777823417 | 18.89° C | 49% | 1011.7 hPa | 0 mm | - | 582 W/m² | - |
| 1777822816 | 18.33° C | 50% | 1011.5 hPa | 0 mm | - | 524 W/m² | - |
| 1777822217 | 18.33° C | 52% | 1011.6 hPa | 0 mm | - | 533 W/m² | - |
| 1777821616 | 17.78° C | 54% | 1011.6 hPa | 0 mm | - | 497 W/m² | - |
| 1777821017 | 17.78° C | 54% | 1011.6 hPa | 0 mm | - | 446 W/m² | - |
| 1777820417 | 17.22° C | 54% | 1011.7 hPa | 0 mm | - | 603 W/m² | - |
| 1777819816 | 17.22° C | 56% | 1011.8 hPa | 0 mm | - | 553 W/m² | - |
* Rain latest hour (hover to see other rain measurements)
** Current wind speed in m/s (hover to see current wind gust speed)